sensor_id;sensor_type;location;lat;lon;timestamp;P1;durP1;ratioP1;P2;durP2;ratioP2
44854;SDS011;30591;48.228;16.398;2023-06-01T00:02:13;0.10;;;0.10;;
44854;SDS011;30591;48.228;16.398;2023-06-01T00:04:40;0.20;;;0.20;;
44854;SDS011;30591;48.228;16.398;2023-06-01T00:07:08;0.10;;;0.10;;
44854;SDS011;30591;48.228;16.398;2023-06-01T00:09:37;0.30;;;0.30;;
44854;SDS011;30591;48.228;16.398;2023-06-01T00:12:04;0.10;;;0.10;;
44854;SDS011;30591;48.228;16.398;2023-06-01T00:14:32;0.10;;;0.10;;
44854;SDS011;30591;48.228;16.398;2023-06-01T00:17:01;0.10;;;0.10;;
44854;SDS011;30591;48.228;16.398;2023-06-01T00:19:30;0.10;;;0.10;;
44854;SDS011;30591;48.228;16.398;2023-06-01T00:21:57;0.23;;;0.23;;
44854;SDS011;30591;48.228;16.398;2023-06-01T00:24:24;0.20;;;0.20;;
44854;SDS011;30591;48.228;16.398;2023-06-01T00:26:52;0.67;;;0.67;;
44854;SDS011;30591;48.228;16.398;2023-06-01T00:29:19;0.50;;;0.50;;
44854;SDS011;30591;48.228;16.398;2023-06-01T00:31:48;0.47;;;0.47;;
44854;SDS011;30591;48.228;16.398;2023-06-01T00:34:16;0.10;;;0.10;;
44854;SDS011;30591;48.228;16.398;2023-06-01T00:36:43;0.10;;;0.10;;
44854;SDS011;30591;48.228;16.398;2023-06-01T00:39:11;0.10;;;0.10;;
44854;SDS011;30591;48.228;16.398;2023-06-01T00:41:39;0.20;;;0.20;;
44854;SDS011;30591;48.228;16.398;2023-06-01T00:44:06;0.10;;;0.10;;
44854;SDS011;30591;48.228;16.398;2023-06-01T00:46:34;0.10;;;0.10;;
44854;SDS011;30591;48.228;16.398;2023-06-01T00:49:04;0.30;;;0.30;;
44854;SDS011;30591;48.228;16.398;2023-06-01T00:51:32;0.10;;;0.10;;
44854;SDS011;30591;48.228;16.398;2023-06-01T00:54:00;0.10;;;0.10;;
44854;SDS011;30591;48.228;16.398;2023-06-01T00:56:29;0.10;;;0.10;;
44854;SDS011;30591;48.228;16.398;2023-06-01T00:59:00;1.10;;;1.03;;
44854;SDS011;30591;48.228;16.398;2023-06-01T01:01:28;0.20;;;0.20;;
44854;SDS011;30591;48.228;16.398;2023-06-01T01:03:58;0.47;;;0.47;;
44854;SDS011;30591;48.228;16.398;2023-06-01T01:06:36;0.10;;;0.10;;
44854;SDS011;30591;48.228;16.398;2023-06-01T01:12:21;0.53;;;0.43;;
44854;SDS011;30591;48.228;16.398;2023-06-01T01:15:09;0.10;;;0.10;;
44854;SDS011;30591;48.228;16.398;2023-06-01T01:17:47;0.10;;;0.10;;
44854;SDS011;30591;48.228;16.398;2023-06-01T01:20:24;0.47;;;0.47;;
44854;SDS011;30591;48.228;16.398;2023-06-01T01:23:14;1.40;;;0.67;;
44854;SDS011;30591;48.228;16.398;2023-06-01T01:28:28;0.10;;;0.10;;
44854;SDS011;30591;48.228;16.398;2023-06-01T01:31:00;0.10;;;0.10;;
44854;SDS011;30591;48.228;16.398;2023-06-01T01:33:31;0.60;;;0.60;;
44854;SDS011;30591;48.228;16.398;2023-06-01T01:36:01;0.10;;;0.10;;
44854;SDS011;30591;48.228;16.398;2023-06-01T01:38:33;0.10;;;0.10;;
44854;SDS011;30591;48.228;16.398;2023-06-01T01:41:02;0.40;;;0.40;;
44854;SDS011;30591;48.228;16.398;2023-06-01T01:43:30;0.20;;;0.20;;
44854;SDS011;30591;48.228;16.398;2023-06-01T01:46:03;0.10;;;0.10;;
44854;SDS011;30591;48.228;16.398;2023-06-01T01:48:44;0.10;;;0.10;;
44854;SDS011;30591;48.228;16.398;2023-06-01T01:51:18;0.27;;;0.27;;
44854;SDS011;30591;48.228;16.398;2023-06-01T01:53:50;0.10;;;0.10;;
44854;SDS011;30591;48.228;16.398;2023-06-01T01:56:21;0.10;;;0.10;;
44854;SDS011;30591;48.228;16.398;2023-06-01T01:58:50;0.10;;;0.10;;
44854;SDS011;30591;48.228;16.398;2023-06-01T02:01:17;0.10;;;0.10;;
44854;SDS011;30591;48.228;16.398;2023-06-01T02:03:46;0.10;;;0.10;;
44854;SDS011;30591;48.228;16.398;2023-06-01T02:06:14;0.20;;;0.20;;
44854;SDS011;30591;48.228;16.398;2023-06-01T02:08:41;0.20;;;0.20;;
44854;SDS011;30591;48.228;16.398;2023-06-01T02:11:10;0.10;;;0.10;;
44854;SDS011;30591;48.228;16.398;2023-06-01T02:13:37;0.10;;;0.10;;
44854;SDS011;30591;48.228;16.398;2023-06-01T02:16:04;0.30;;;0.30;;
44854;SDS011;30591;48.228;16.398;2023-06-01T02:18:36;0.10;;;0.10;;
44854;SDS011;30591;48.228;16.398;2023-06-01T02:21:06;0.20;;;0.20;;
44854;SDS011;30591;48.228;16.398;2023-06-01T02:23:35;0.10;;;0.10;;
44854;SDS011;30591;48.228;16.398;2023-06-01T02:26:06;0.20;;;0.20;;
44854;SDS011;30591;48.228;16.398;2023-06-01T02:28:38;0.10;;;0.10;;
44854;SDS011;30591;48.228;16.398;2023-06-01T02:31:05;0.10;;;0.10;;
44854;SDS011;30591;48.228;16.398;2023-06-01T02:33:35;0.10;;;0.10;;
44854;SDS011;30591;48.228;16.398;2023-06-01T02:36:03;0.20;;;0.20;;
44854;SDS011;30591;48.228;16.398;2023-06-01T02:38:30;0.30;;;0.30;;
44854;SDS011;30591;48.228;16.398;2023-06-01T02:40:58;0.10;;;0.10;;
44854;SDS011;30591;48.228;16.398;2023-06-01T02:43:26;0.10;;;0.10;;
44854;SDS011;30591;48.228;16.398;2023-06-01T02:45:54;0.20;;;0.20;;
44854;SDS011;30591;48.228;16.398;2023-06-01T02:48:22;0.20;;;0.20;;
44854;SDS011;30591;48.228;16.398;2023-06-01T02:50:51;0.17;;;0.17;;
44854;SDS011;30591;48.228;16.398;2023-06-01T02:53:18;0.67;;;0.67;;
44854;SDS011;30591;48.228;16.398;2023-06-01T02:55:45;0.10;;;0.10;;
44854;SDS011;30591;48.228;16.398;2023-06-01T02:58:32;0.10;;;0.10;;
44854;SDS011;30591;48.228;16.398;2023-06-01T03:01:09;0.10;;;0.10;;
44854;SDS011;30591;48.228;16.398;2023-06-01T03:03:38;0.37;;;0.37;;
44854;SDS011;30591;48.228;16.398;2023-06-01T03:06:07;0.20;;;0.20;;
44854;SDS011;30591;48.228;16.398;2023-06-01T03:08:58;0.47;;;0.47;;
44854;SDS011;30591;48.228;16.398;2023-06-01T03:12:04;0.10;;;0.10;;
44854;SDS011;30591;48.228;16.398;2023-06-01T03:14:34;0.10;;;0.10;;
44854;SDS011;30591;48.228;16.398;2023-06-01T03:17:02;0.10;;;0.10;;
44854;SDS011;30591;48.228;16.398;2023-06-01T03:19:29;0.10;;;0.10;;
44854;SDS011;30591;48.228;16.398;2023-06-01T03:21:59;0.10;;;0.10;;
44854;SDS011;30591;48.228;16.398;2023-06-01T03:24:27;0.10;;;0.10;;
44854;SDS011;30591;48.228;16.398;2023-06-01T03:27:00;0.13;;;0.13;;
44854;SDS011;30591;48.228;16.398;2023-06-01T03:29:31;0.20;;;0.20;;
44854;SDS011;30591;48.228;16.398;2023-06-01T03:32:00;0.10;;;0.10;;
44854;SDS011;30591;48.228;16.398;2023-06-01T03:34:27;0.20;;;0.20;;
44854;SDS011;30591;48.228;16.398;2023-06-01T03:36:55;0.27;;;0.27;;
44854;SDS011;30591;48.228;16.398;2023-06-01T03:39:23;0.20;;;0.20;;
44854;SDS011;30591;48.228;16.398;2023-06-01T03:41:50;0.20;;;0.20;;
44854;SDS011;30591;48.228;16.398;2023-06-01T03:44:17;0.10;;;0.10;;
44854;SDS011;30591;48.228;16.398;2023-06-01T03:46:45;0.10;;;0.10;;
44854;SDS011;30591;48.228;16.398;2023-06-01T03:49:13;0.60;;;0.60;;
44854;SDS011;30591;48.228;16.398;2023-06-01T03:51:42;0.77;;;0.67;;
44854;SDS011;30591;48.228;16.398;2023-06-01T03:54:10;0.17;;;0.17;;
44854;SDS011;30591;48.228;16.398;2023-06-01T03:56:40;0.63;;;0.47;;
44854;SDS011;30591;48.228;16.398;2023-06-01T03:59:10;0.20;;;0.20;;
44854;SDS011;30591;48.228;16.398;2023-06-01T04:01:39;0.20;;;0.20;;
44854;SDS011;30591;48.228;16.398;2023-06-01T04:04:10;0.20;;;0.20;;
44854;SDS011;30591;48.228;16.398;2023-06-01T04:06:40;0.10;;;0.10;;
44854;SDS011;30591;48.228;16.398;2023-06-01T04:09:14;0.10;;;0.10;;
44854;SDS011;30591;48.228;16.398;2023-06-01T04:11:43;0.20;;;0.20;;
44854;SDS011;30591;48.228;16.398;2023-06-01T04:14:11;0.10;;;0.10;;
44854;SDS011;30591;48.228;16.398;2023-06-01T04:16:40;0.10;;;0.10;;
44854;SDS011;30591;48.228;16.398;2023-06-01T04:19:07;0.73;;;0.30;;
44854;SDS011;30591;48.228;16.398;2023-06-01T04:21:36;0.33;;;0.33;;
44854;SDS011;30591;48.228;16.398;2023-06-01T04:24:04;0.20;;;0.20;;
44854;SDS011;30591;48.228;16.398;2023-06-01T04:26:31;0.10;;;0.10;;
44854;SDS011;30591;48.228;16.398;2023-06-01T04:28:59;0.23;;;0.23;;
44854;SDS011;30591;48.228;16.398;2023-06-01T04:31:28;0.10;;;0.10;;
44854;SDS011;30591;48.228;16.398;2023-06-01T04:33:56;0.10;;;0.10;;
44854;SDS011;30591;48.228;16.398;2023-06-01T04:36:29;0.67;;;0.67;;
44854;SDS011;30591;48.228;16.398;2023-06-01T04:38:59;0.10;;;0.10;;
44854;SDS011;30591;48.228;16.398;2023-06-01T04:41:28;0.53;;;0.53;;
44854;SDS011;30591;48.228;16.398;2023-06-01T04:43:57;0.43;;;0.43;;
44854;SDS011;30591;48.228;16.398;2023-06-01T04:46:25;0.10;;;0.10;;
44854;SDS011;30591;48.228;16.398;2023-06-01T04:48:57;0.20;;;0.20;;
44854;SDS011;30591;48.228;16.398;2023-06-01T04:51:27;0.60;;;0.53;;
44854;SDS011;30591;48.228;16.398;2023-06-01T04:53:56;0.10;;;0.10;;
44854;SDS011;30591;48.228;16.398;2023-06-01T04:56:24;0.20;;;0.20;;
44854;SDS011;30591;48.228;16.398;2023-06-01T04:58:54;0.10;;;0.10;;
44854;SDS011;30591;48.228;16.398;2023-06-01T05:01:24;0.30;;;0.30;;
44854;SDS011;30591;48.228;16.398;2023-06-01T05:03:52;0.20;;;0.20;;
44854;SDS011;30591;48.228;16.398;2023-06-01T05:06:24;0.10;;;0.10;;
44854;SDS011;30591;48.228;16.398;2023-06-01T05:08:53;0.10;;;0.10;;
44854;SDS011;30591;48.228;16.398;2023-06-01T05:11:22;0.60;;;0.60;;
44854;SDS011;30591;48.228;16.398;2023-06-01T05:13:49;0.10;;;0.10;;
44854;SDS011;30591;48.228;16.398;2023-06-01T05:16:20;0.20;;;0.20;;
44854;SDS011;30591;48.228;16.398;2023-06-01T05:18:50;0.50;;;0.50;;
44854;SDS011;30591;48.228;16.398;2023-06-01T05:21:18;0.10;;;0.10;;
44854;SDS011;30591;48.228;16.398;2023-06-01T05:23:45;0.10;;;0.10;;
44854;SDS011;30591;48.228;16.398;2023-06-01T05:26:13;0.20;;;0.20;;
44854;SDS011;30591;48.228;16.398;2023-06-01T05:28:41;0.10;;;0.10;;
44854;SDS011;30591;48.228;16.398;2023-06-01T05:31:11;0.30;;;0.30;;
44854;SDS011;30591;48.228;16.398;2023-06-01T05:33:47;0.73;;;0.73;;
44854;SDS011;30591;48.228;16.398;2023-06-01T05:36:15;0.13;;;0.13;;
44854;SDS011;30591;48.228;16.398;2023-06-01T05:38:43;0.10;;;0.10;;
44854;SDS011;30591;48.228;16.398;2023-06-01T05:41:11;0.10;;;0.10;;
44854;SDS011;30591;48.228;16.398;2023-06-01T05:43:39;0.40;;;0.37;;
44854;SDS011;30591;48.228;16.398;2023-06-01T05:46:07;0.20;;;0.20;;
44854;SDS011;30591;48.228;16.398;2023-06-01T05:48:36;0.20;;;0.20;;
44854;SDS011;30591;48.228;16.398;2023-06-01T05:51:08;0.30;;;0.30;;
44854;SDS011;30591;48.228;16.398;2023-06-01T05:53:36;0.30;;;0.30;;
44854;SDS011;30591;48.228;16.398;2023-06-01T05:56:03;0.20;;;0.20;;
44854;SDS011;30591;48.228;16.398;2023-06-01T05:58:31;0.30;;;0.30;;
44854;SDS011;30591;48.228;16.398;2023-06-01T06:00:59;0.40;;;0.40;;
44854;SDS011;30591;48.228;16.398;2023-06-01T06:03:28;0.40;;;0.40;;
44854;SDS011;30591;48.228;16.398;2023-06-01T06:05:56;0.20;;;0.20;;
44854;SDS011;30591;48.228;16.398;2023-06-01T06:08:24;0.20;;;0.20;;
44854;SDS011;30591;48.228;16.398;2023-06-01T06:10:54;0.20;;;0.20;;
44854;SDS011;30591;48.228;16.398;2023-06-01T06:13:21;0.40;;;0.40;;
44854;SDS011;30591;48.228;16.398;2023-06-01T06:15:49;0.30;;;0.30;;
44854;SDS011;30591;48.228;16.398;2023-06-01T06:18:16;0.20;;;0.20;;
44854;SDS011;30591;48.228;16.398;2023-06-01T06:20:46;0.30;;;0.30;;
44854;SDS011;30591;48.228;16.398;2023-06-01T06:23:13;0.20;;;0.20;;
44854;SDS011;30591;48.228;16.398;2023-06-01T06:25:41;0.60;;;0.60;;
44854;SDS011;30591;48.228;16.398;2023-06-01T06:28:09;0.28;;;0.28;;
44854;SDS011;30591;48.228;16.398;2023-06-01T06:30:36;0.30;;;0.30;;
44854;SDS011;30591;48.228;16.398;2023-06-01T06:33:04;0.43;;;0.43;;
44854;SDS011;30591;48.228;16.398;2023-06-01T06:35:36;0.20;;;0.20;;
44854;SDS011;30591;48.228;16.398;2023-06-01T06:38:05;0.40;;;0.40;;
44854;SDS011;30591;48.228;16.398;2023-06-01T06:40:33;0.43;;;0.43;;
44854;SDS011;30591;48.228;16.398;2023-06-01T06:43:00;0.20;;;0.20;;
44854;SDS011;30591;48.228;16.398;2023-06-01T06:45:28;0.20;;;0.20;;
44854;SDS011;30591;48.228;16.398;2023-06-01T06:47:55;0.20;;;0.20;;
44854;SDS011;30591;48.228;16.398;2023-06-01T06:50:22;0.20;;;0.20;;
44854;SDS011;30591;48.228;16.398;2023-06-01T06:52:51;0.30;;;0.30;;
44854;SDS011;30591;48.228;16.398;2023-06-01T06:55:18;0.30;;;0.30;;
44854;SDS011;30591;48.228;16.398;2023-06-01T06:57:47;0.32;;;0.32;;
44854;SDS011;30591;48.228;16.398;2023-06-01T07:00:14;0.20;;;0.20;;
44854;SDS011;30591;48.228;16.398;2023-06-01T07:02:42;0.70;;;0.70;;
44854;SDS011;30591;48.228;16.398;2023-06-01T07:05:16;0.30;;;0.30;;
44854;SDS011;30591;48.228;16.398;2023-06-01T07:07:43;0.30;;;0.30;;
44854;SDS011;30591;48.228;16.398;2023-06-01T07:10:11;0.22;;;0.22;;
44854;SDS011;30591;48.228;16.398;2023-06-01T07:12:38;0.28;;;0.28;;
44854;SDS011;30591;48.228;16.398;2023-06-01T07:15:06;0.20;;;0.20;;
44854;SDS011;30591;48.228;16.398;2023-06-01T07:17:34;0.20;;;0.20;;
44854;SDS011;30591;48.228;16.398;2023-06-01T07:20:02;0.45;;;0.45;;
44854;SDS011;30591;48.228;16.398;2023-06-01T07:22:33;0.25;;;0.25;;
44854;SDS011;30591;48.228;16.398;2023-06-01T07:25:01;0.30;;;0.30;;
44854;SDS011;30591;48.228;16.398;2023-06-01T07:27:28;0.35;;;0.35;;
44854;SDS011;30591;48.228;16.398;2023-06-01T07:29:56;0.25;;;0.25;;
44854;SDS011;30591;48.228;16.398;2023-06-01T07:32:24;0.20;;;0.20;;
44854;SDS011;30591;48.228;16.398;2023-06-01T07:34:52;0.32;;;0.32;;
44854;SDS011;30591;48.228;16.398;2023-06-01T07:37:19;0.20;;;0.20;;
44854;SDS011;30591;48.228;16.398;2023-06-01T07:39:48;0.25;;;0.25;;
44854;SDS011;30591;48.228;16.398;2023-06-01T07:42:16;0.25;;;0.25;;
44854;SDS011;30591;48.228;16.398;2023-06-01T07:44:44;0.20;;;0.20;;
44854;SDS011;30591;48.228;16.398;2023-06-01T07:47:12;0.20;;;0.20;;
44854;SDS011;30591;48.228;16.398;2023-06-01T07:49:40;0.50;;;0.50;;
44854;SDS011;30591;48.228;16.398;2023-06-01T07:52:07;0.30;;;0.30;;
44854;SDS011;30591;48.228;16.398;2023-06-01T07:54:34;0.30;;;0.30;;
44854;SDS011;30591;48.228;16.398;2023-06-01T07:57:05;0.40;;;0.40;;
44854;SDS011;30591;48.228;16.398;2023-06-01T07:59:33;0.40;;;0.40;;
44854;SDS011;30591;48.228;16.398;2023-06-01T08:02:00;0.20;;;0.20;;
44854;SDS011;30591;48.228;16.398;2023-06-01T08:04:28;0.45;;;0.45;;
44854;SDS011;30591;48.228;16.398;2023-06-01T08:07:00;0.52;;;0.52;;
44854;SDS011;30591;48.228;16.398;2023-06-01T08:09:33;0.52;;;0.52;;
44854;SDS011;30591;48.228;16.398;2023-06-01T08:12:04;1.10;;;0.50;;
44854;SDS011;30591;48.228;16.398;2023-06-01T08:14:33;0.70;;;0.70;;
44854;SDS011;30591;48.228;16.398;2023-06-01T08:17:01;0.45;;;0.45;;
44854;SDS011;30591;48.228;16.398;2023-06-01T08:19:29;0.35;;;0.35;;
44854;SDS011;30591;48.228;16.398;2023-06-01T08:21:56;0.65;;;0.65;;
44854;SDS011;30591;48.228;16.398;2023-06-01T08:24:24;0.30;;;0.30;;
44854;SDS011;30591;48.228;16.398;2023-06-01T08:26:55;0.20;;;0.20;;
44854;SDS011;30591;48.228;16.398;2023-06-01T08:29:25;0.20;;;0.20;;
44854;SDS011;30591;48.228;16.398;2023-06-01T08:32:08;0.40;;;0.40;;
44854;SDS011;30591;48.228;16.398;2023-06-01T08:34:36;0.20;;;0.20;;
44854;SDS011;30591;48.228;16.398;2023-06-01T08:37:03;0.50;;;0.50;;
44854;SDS011;30591;48.228;16.398;2023-06-01T08:39:31;0.73;;;0.73;;
44854;SDS011;30591;48.228;16.398;2023-06-01T08:44:47;0.40;;;0.40;;
44854;SDS011;30591;48.228;16.398;2023-06-01T08:47:21;0.38;;;0.38;;
44854;SDS011;30591;48.228;16.398;2023-06-01T08:49:53;0.20;;;0.20;;
44854;SDS011;30591;48.228;16.398;2023-06-01T08:52:25;0.20;;;0.20;;
44854;SDS011;30591;48.228;16.398;2023-06-01T08:54:55;0.20;;;0.20;;
44854;SDS011;30591;48.228;16.398;2023-06-01T08:57:25;0.60;;;0.60;;
44854;SDS011;30591;48.228;16.398;2023-06-01T08:59:53;2.72;;;0.50;;
44854;SDS011;30591;48.228;16.398;2023-06-01T09:02:21;0.20;;;0.20;;
44854;SDS011;30591;48.228;16.398;2023-06-01T09:04:50;0.20;;;0.20;;
44854;SDS011;30591;48.228;16.398;2023-06-01T09:07:18;0.40;;;0.40;;
44854;SDS011;30591;48.228;16.398;2023-06-01T09:09:46;0.50;;;0.50;;
44854;SDS011;30591;48.228;16.398;2023-06-01T09:12:21;0.20;;;0.20;;
44854;SDS011;30591;48.228;16.398;2023-06-01T09:14:54;0.20;;;0.20;;
44854;SDS011;30591;48.228;16.398;2023-06-01T09:17:38;0.32;;;0.32;;
44854;SDS011;30591;48.228;16.398;2023-06-01T09:20:11;0.63;;;0.63;;
44854;SDS011;30591;48.228;16.398;2023-06-01T09:22:48;0.30;;;0.30;;
44854;SDS011;30591;48.228;16.398;2023-06-01T09:25:16;0.47;;;0.47;;
44854;SDS011;30591;48.228;16.398;2023-06-01T09:27:50;0.50;;;0.50;;
44854;SDS011;30591;48.228;16.398;2023-06-01T09:30:20;0.30;;;0.30;;
44854;SDS011;30591;48.228;16.398;2023-06-01T09:32:48;0.38;;;0.38;;
44854;SDS011;30591;48.228;16.398;2023-06-01T09:35:54;0.50;;;0.50;;
44854;SDS011;30591;48.228;16.398;2023-06-01T09:38:24;0.98;;;0.45;;
44854;SDS011;30591;48.228;16.398;2023-06-01T09:40:59;0.32;;;0.32;;
44854;SDS011;30591;48.228;16.398;2023-06-01T09:43:28;0.30;;;0.30;;
44854;SDS011;30591;48.228;16.398;2023-06-01T09:46:04;0.20;;;0.20;;
44854;SDS011;30591;48.228;16.398;2023-06-01T09:48:33;0.20;;;0.20;;
44854;SDS011;30591;48.228;16.398;2023-06-01T09:51:00;1.23;;;0.95;;
44854;SDS011;30591;48.228;16.398;2023-06-01T09:53:39;0.20;;;0.20;;
44854;SDS011;30591;48.228;16.398;2023-06-01T09:56:07;0.25;;;0.25;;
44854;SDS011;30591;48.228;16.398;2023-06-01T09:58:35;0.20;;;0.20;;
44854;SDS011;30591;48.228;16.398;2023-06-01T10:01:06;0.63;;;0.63;;
44854;SDS011;30591;48.228;16.398;2023-06-01T10:03:41;0.20;;;0.20;;
44854;SDS011;30591;48.228;16.398;2023-06-01T10:06:11;0.50;;;0.50;;
44854;SDS011;30591;48.228;16.398;2023-06-01T10:08:39;0.30;;;0.30;;
44854;SDS011;30591;48.228;16.398;2023-06-01T10:11:08;0.20;;;0.20;;
44854;SDS011;30591;48.228;16.398;2023-06-01T10:13:35;0.40;;;0.40;;
44854;SDS011;30591;48.228;16.398;2023-06-01T10:16:03;0.30;;;0.30;;
44854;SDS011;30591;48.228;16.398;2023-06-01T10:18:32;0.40;;;0.40;;
44854;SDS011;30591;48.228;16.398;2023-06-01T10:20:59;0.28;;;0.28;;
44854;SDS011;30591;48.228;16.398;2023-06-01T10:23:28;1.65;;;0.90;;
44854;SDS011;30591;48.228;16.398;2023-06-01T10:25:57;0.20;;;0.20;;
44854;SDS011;30591;48.228;16.398;2023-06-01T10:28:32;0.30;;;0.30;;
44854;SDS011;30591;48.228;16.398;2023-06-01T10:33:58;1.27;;;0.40;;
44854;SDS011;30591;48.228;16.398;2023-06-01T10:41:54;0.38;;;0.38;;
44854;SDS011;30591;48.228;16.398;2023-06-01T10:52:25;0.45;;;0.45;;
44854;SDS011;30591;48.228;16.398;2023-06-01T10:54:53;0.30;;;0.30;;
44854;SDS011;30591;48.228;16.398;2023-06-01T10:57:24;0.40;;;0.40;;
44854;SDS011;30591;48.228;16.398;2023-06-01T11:00:08;0.30;;;0.30;;
44854;SDS011;30591;48.228;16.398;2023-06-01T11:02:53;0.30;;;0.30;;
44854;SDS011;30591;48.228;16.398;2023-06-01T11:13:26;0.38;;;0.38;;
44854;SDS011;30591;48.228;16.398;2023-06-01T11:18:46;0.30;;;0.30;;
44854;SDS011;30591;48.228;16.398;2023-06-01T11:21:17;0.28;;;0.28;;
44854;SDS011;30591;48.228;16.398;2023-06-01T11:23:48;0.20;;;0.20;;
44854;SDS011;30591;48.228;16.398;2023-06-01T11:26:16;0.57;;;0.57;;
44854;SDS011;30591;48.228;16.398;2023-06-01T11:28:45;0.63;;;0.40;;
44854;SDS011;30591;48.228;16.398;2023-06-01T11:31:14;0.30;;;0.30;;
44854;SDS011;30591;48.228;16.398;2023-06-01T11:33:48;0.40;;;0.40;;
44854;SDS011;30591;48.228;16.398;2023-06-01T11:36:48;0.45;;;0.45;;
44854;SDS011;30591;48.228;16.398;2023-06-01T11:44:34;0.20;;;0.20;;
44854;SDS011;30591;48.228;16.398;2023-06-01T11:47:03;0.30;;;0.30;;
44854;SDS011;30591;48.228;16.398;2023-06-01T11:49:42;0.25;;;0.25;;
44854;SDS011;30591;48.228;16.398;2023-06-01T11:52:16;0.47;;;0.47;;
44854;SDS011;30591;48.228;16.398;2023-06-01T11:54:44;0.20;;;0.20;;
44854;SDS011;30591;48.228;16.398;2023-06-01T11:57:13;0.50;;;0.50;;
44854;SDS011;30591;48.228;16.398;2023-06-01T11:59:41;0.35;;;0.35;;
44854;SDS011;30591;48.228;16.398;2023-06-01T12:02:17;0.30;;;0.30;;
44854;SDS011;30591;48.228;16.398;2023-06-01T12:05:04;0.22;;;0.22;;
44854;SDS011;30591;48.228;16.398;2023-06-01T12:07:43;0.20;;;0.20;;
44854;SDS011;30591;48.228;16.398;2023-06-01T12:10:15;2.28;;;0.52;;
44854;SDS011;30591;48.228;16.398;2023-06-01T12:12:45;1.02;;;1.00;;
44854;SDS011;30591;48.228;16.398;2023-06-01T12:15:13;0.20;;;0.20;;
44854;SDS011;30591;48.228;16.398;2023-06-01T12:17:48;6.03;;;0.50;;
44854;SDS011;30591;48.228;16.398;2023-06-01T12:20:36;0.30;;;0.30;;
44854;SDS011;30591;48.228;16.398;2023-06-01T12:23:15;0.38;;;0.38;;
44854;SDS011;30591;48.228;16.398;2023-06-01T12:25:49;0.30;;;0.30;;
44854;SDS011;30591;48.228;16.398;2023-06-01T12:28:18;0.40;;;0.40;;
44854;SDS011;30591;48.228;16.398;2023-06-01T12:30:46;0.35;;;0.35;;
44854;SDS011;30591;48.228;16.398;2023-06-01T12:33:34;0.30;;;0.30;;
44854;SDS011;30591;48.228;16.398;2023-06-01T12:36:02;0.40;;;0.40;;
44854;SDS011;30591;48.228;16.398;2023-06-01T12:38:35;0.20;;;0.20;;
44854;SDS011;30591;48.228;16.398;2023-06-01T12:41:08;0.20;;;0.20;;
44854;SDS011;30591;48.228;16.398;2023-06-01T12:43:38;5.13;;;0.63;;
44854;SDS011;30591;48.228;16.398;2023-06-01T12:46:31;0.32;;;0.32;;
44854;SDS011;30591;48.228;16.398;2023-06-01T12:49:13;0.20;;;0.20;;
44854;SDS011;30591;48.228;16.398;2023-06-01T12:51:44;0.40;;;0.40;;
44854;SDS011;30591;48.228;16.398;2023-06-01T12:54:12;0.50;;;0.50;;
44854;SDS011;30591;48.228;16.398;2023-06-01T12:56:39;0.38;;;0.38;;
44854;SDS011;30591;48.228;16.398;2023-06-01T12:59:06;0.52;;;0.52;;
44854;SDS011;30591;48.228;16.398;2023-06-01T13:01:34;0.38;;;0.38;;
44854;SDS011;30591;48.228;16.398;2023-06-01T13:04:02;0.93;;;0.73;;
44854;SDS011;30591;48.228;16.398;2023-06-01T13:06:34;1.30;;;1.20;;
44854;SDS011;30591;48.228;16.398;2023-06-01T13:09:02;0.60;;;0.60;;
44854;SDS011;30591;48.228;16.398;2023-06-01T13:11:29;0.82;;;0.82;;
44854;SDS011;30591;48.228;16.398;2023-06-01T13:13:57;1.08;;;1.08;;
44854;SDS011;30591;48.228;16.398;2023-06-01T13:16:24;1.00;;;1.00;;
44854;SDS011;30591;48.228;16.398;2023-06-01T13:18:51;1.20;;;1.20;;
44854;SDS011;30591;48.228;16.398;2023-06-01T13:21:20;1.60;;;1.60;;
44854;SDS011;30591;48.228;16.398;2023-06-01T13:23:47;1.70;;;1.70;;
44854;SDS011;30591;48.228;16.398;2023-06-01T13:26:15;2.00;;;2.00;;
44854;SDS011;30591;48.228;16.398;2023-06-01T13:28:42;2.10;;;2.10;;
44854;SDS011;30591;48.228;16.398;2023-06-01T13:31:10;2.40;;;2.30;;
44854;SDS011;30591;48.228;16.398;2023-06-01T13:33:37;2.08;;;2.08;;
44854;SDS011;30591;48.228;16.398;2023-06-01T13:36:05;2.03;;;1.92;;
44854;SDS011;30591;48.228;16.398;2023-06-01T13:38:33;1.20;;;1.20;;
44854;SDS011;30591;48.228;16.398;2023-06-01T13:41:00;0.80;;;0.80;;
44854;SDS011;30591;48.228;16.398;2023-06-01T13:43:28;0.57;;;0.57;;
44854;SDS011;30591;48.228;16.398;2023-06-01T13:45:56;0.40;;;0.40;;
44854;SDS011;30591;48.228;16.398;2023-06-01T13:48:23;0.50;;;0.50;;
44854;SDS011;30591;48.228;16.398;2023-06-01T13:50:51;0.40;;;0.40;;
44854;SDS011;30591;48.228;16.398;2023-06-01T13:53:18;0.40;;;0.40;;
44854;SDS011;30591;48.228;16.398;2023-06-01T13:55:46;0.57;;;0.57;;
44854;SDS011;30591;48.228;16.398;2023-06-01T13:58:13;0.70;;;0.70;;
44854;SDS011;30591;48.228;16.398;2023-06-01T14:00:41;0.35;;;0.35;;
44854;SDS011;30591;48.228;16.398;2023-06-01T14:03:11;0.30;;;0.30;;
44854;SDS011;30591;48.228;16.398;2023-06-01T14:05:39;0.40;;;0.40;;
44854;SDS011;30591;48.228;16.398;2023-06-01T14:08:20;0.57;;;0.57;;
44854;SDS011;30591;48.228;16.398;2023-06-01T14:10:48;0.52;;;0.52;;
44854;SDS011;30591;48.228;16.398;2023-06-01T14:13:15;0.40;;;0.40;;
44854;SDS011;30591;48.228;16.398;2023-06-01T14:15:42;0.60;;;0.60;;
44854;SDS011;30591;48.228;16.398;2023-06-01T14:18:10;2.58;;;1.45;;
44854;SDS011;30591;48.228;16.398;2023-06-01T14:20:37;0.93;;;0.93;;
44854;SDS011;30591;48.228;16.398;2023-06-01T14:23:06;1.20;;;1.20;;
44854;SDS011;30591;48.228;16.398;2023-06-01T14:25:36;1.50;;;1.50;;
44854;SDS011;30591;48.228;16.398;2023-06-01T14:28:03;1.85;;;1.85;;
44854;SDS011;30591;48.228;16.398;2023-06-01T14:30:31;2.30;;;2.20;;
44854;SDS011;30591;48.228;16.398;2023-06-01T14:32:58;2.40;;;2.40;;
44854;SDS011;30591;48.228;16.398;2023-06-01T14:35:26;2.90;;;2.80;;
44854;SDS011;30591;48.228;16.398;2023-06-01T14:37:53;3.10;;;3.00;;
44854;SDS011;30591;48.228;16.398;2023-06-01T14:40:22;3.70;;;3.60;;
44854;SDS011;30591;48.228;16.398;2023-06-01T14:42:49;4.30;;;4.20;;
44854;SDS011;30591;48.228;16.398;2023-06-01T14:45:17;4.25;;;4.15;;
44854;SDS011;30591;48.228;16.398;2023-06-01T14:47:46;4.63;;;4.53;;
44854;SDS011;30591;48.228;16.398;2023-06-01T14:50:13;4.80;;;4.70;;
44854;SDS011;30591;48.228;16.398;2023-06-01T14:52:41;5.32;;;5.20;;
44854;SDS011;30591;48.228;16.398;2023-06-01T14:55:08;5.25;;;5.15;;
44854;SDS011;30591;48.228;16.398;2023-06-01T14:57:39;5.45;;;5.25;;
44854;SDS011;30591;48.228;16.398;2023-06-01T15:00:07;5.88;;;5.68;;
44854;SDS011;30591;48.228;16.398;2023-06-01T15:02:35;5.78;;;5.57;;
44854;SDS011;30591;48.228;16.398;2023-06-01T15:05:03;6.00;;;5.80;;
44854;SDS011;30591;48.228;16.398;2023-06-01T15:07:30;5.90;;;5.70;;
44854;SDS011;30591;48.228;16.398;2023-06-01T15:09:58;5.90;;;5.70;;
44854;SDS011;30591;48.228;16.398;2023-06-01T15:12:25;5.95;;;5.75;;
44854;SDS011;30591;48.228;16.398;2023-06-01T15:14:52;5.45;;;5.25;;
44854;SDS011;30591;48.228;16.398;2023-06-01T15:17:20;4.90;;;4.80;;
44854;SDS011;30591;48.228;16.398;2023-06-01T15:19:48;5.13;;;4.95;;
44854;SDS011;30591;48.228;16.398;2023-06-01T15:22:15;6.15;;;5.72;;
44854;SDS011;30591;48.228;16.398;2023-06-01T15:24:43;5.80;;;5.60;;
44854;SDS011;30591;48.228;16.398;2023-06-01T15:27:10;5.82;;;5.63;;
44854;SDS011;30591;48.228;16.398;2023-06-01T15:29:37;5.68;;;5.47;;
44854;SDS011;30591;48.228;16.398;2023-06-01T15:32:05;5.95;;;5.65;;